Overview Statistics Trail Chart Weather Telemetry Raw packets
 

This is the latest recevied weather packets stored in our database for station/object DL2GPS-3. If no packets are shown the sender has not sent any weather packets the latest 10 day(s).

<< 16 17 18 19 20 21 22 >>
Time Temp. Humidity Pressure Rain* Wind** Luminosity Snow
1788443833 25° C 41% 1026.3 hPa - - - -
1788443228 25° C 41% 1026.4 hPa - - - -
1788442622 25° C 41% 1026.5 hPa - - - -
1788442017 25° C 40% 1026.5 hPa - - - -
1788441412 25.56° C 40% 1026.4 hPa - - - -
1788440807 25.56° C 38% 1026.4 hPa - - - -
1788440202 26.67° C 36% 1026.2 hPa - - - -
1788439597 26.67° C 36% 1026.2 hPa - - - -
1788438992 26.67° C 38% 1026.2 hPa - - - -
1788438387 26.11° C 38% 1026.1 hPa - - - -
1788437783 25.56° C 40% 1026.2 hPa - - - -
1788437179 26.11° C 38% 1026.2 hPa - - - -
1788436573 25.56° C 39% 1026.4 hPa - - - -
1788435968 25° C 39% 1026.5 hPa - - - -
1788435364 25° C 39% 1026.6 hPa - - - -
1788434758 23.89° C 42% 1026.6 hPa - - - -
1788434153 23.33° C 43% 1026.8 hPa - - - -
1788433548 23.89° C 44% 1027.1 hPa - - - -
1788432944 21.67° C 46% 1027.2 hPa - - - -
1788432339 22.78° C 44% 1026.9 hPa - - - -
1788431733 23.33° C 41% 1027 hPa - - - -
1788431128 23.33° C 42% 1027 hPa - - - -
1788430523 22.78° C 44% 1026.9 hPa - - - -
1788429918 22.78° C 43% 1027.1 hPa - - - -
1788429313 22.78° C 44% 1027 hPa - - - -

* Rain since midnight (hover to see other rain measurements)
** Current wind speed in m/s (hover to see current wind gust speed)